Nearby METAR Reports

 

KPBH - Phillips, Wisconsin, USA
Distance from station: SE 13mi, 21km
Updated: 08/18/2019 10:15am
Light rain, Overcast
Light rain, Overcast
 Wind from WSW
Wind: WSW 8 mph , 13 km/h
Temperature: 66°F , 19°C
Dew Point: 66°F , 19°C
Humidity: 100%
Barometer: 29.65 inHg , 1004.1 hPa
Summary: Light rain
Clouds: Overcast
Visibility: 7 miles , 11 km
Cloud details: Overcast 800 ft
2019/08/18 15:15 KPBH 181515Z AUTO 25007KT 7SM -RA OVC008 19/19 A2965 RMK AO2 P0001 T01860186
KRCX - Ladysmith/Rusk, Wisconsin, USA
Distance from station: SW 29mi, 46km
Updated: 08/18/2019 10:15am
Overcast
Overcast
 Wind from W
Wind: W 13 mph , 20 km/h
Temperature: 66°F , 19°C
Dew Point: 66°F , 19°C
Humidity: 100%
Barometer: 29.71 inHg , 1006.1 hPa
Clouds: Overcast
Visibility: 10 miles , 16 km
Cloud details: Overcast 2000 ft
2019/08/18 15:15 KRCX 181515Z AUTO 28011KT 10SM OVC020 19/19 A2971 RMK AO2 T01850185
 
KD25 - Manitowish Water, Wisconsin, USA
Distance from station: ENE 41mi, 66km
Updated: 08/18/2019 10:15am
Rain, Overcast
Rain, Overcast
 Wind from ESE
Wind: ESE 3 mph , 6 km/h
Temperature: 64°F , 18°C
Dew Point: 64°F , 18°C
Humidity: 100%
Barometer: 29.63 inHg , 1003.4 hPa
Summary: Rain
Clouds: Overcast
Visibility: 2 1/2 miles , 4 km
Cloud details: Partly cloudy 600 ft
Mostly cloudy 3500 ft
Overcast 4500 ft
2019/08/18 15:15 KD25 181515Z AUTO 12003KT 2 1/2SM RA SCT006 BKN035 OVC045 18/18 A2963 RMK AO2 P0012 T01800180
KHYR - Hayward, Wisconsin, USA
Distance from station: WNW 42mi, 68km
Updated: 08/18/2019 9:53am
Overcast
Overcast
 Wind from varies
Wind: varies 6 mph , 9 km/h
Temperature: 64°F , 18°C
Dew Point: 63°F , 17°C
Humidity: 94%
Barometer: 29.69 inHg , 1005.4 hPa
Clouds: Overcast
Visibility: 10 miles , 16 km
Cloud details: Overcast 1300 ft
2019/08/18 14:53 KHYR 181453Z AUTO VRB05KT 10SM OVC013 18/17 A2969 RMK AO2 SLP052 60006 T01830167 53010
 
KARV - Minocqua/Woodruf, Wisconsin, USA
Distance from station: E 44mi, 71km
Updated: 08/18/2019 9:55am
Light rain, Overcast
Light rain, Overcast
 Wind from SE
Wind: SE 5 mph , 7 km/h
Temperature: 68°F , 20°C
Dew Point: 64°F , 18°C
Humidity: 88%
Barometer: 29.62 inHg , 1003 hPa
Summary: Light rain
Clouds: Overcast
Visibility: 7 miles , 11 km
Cloud details: Partly cloudy 600 ft
Mostly cloudy 1500 ft
Overcast 2500 ft
2019/08/18 14:55 KARV 181455Z AUTO 13004KT 7SM -RA SCT006 BKN015 OVC025 20/18 A2962 RMK AO2 P0012 60017 T01950176
KTKV - Tomahawk Regnl, Wisconsin, USA
Distance from station: ESE 46mi, 74km
Updated: 08/18/2019 10:15am
Light drizzle, Overcast
Light drizzle, Overcast
 Wind from SSW
Wind: SSW 3 mph , 6 km/h
Temperature: 64°F , 18°C
Dew Point: 63°F , 17°C
Humidity: 94%
Barometer: 29.66 inHg , 1004.4 hPa
Summary: Light Drizzle
Clouds: Overcast
Visibility: 4 miles , 6 km
Cloud details: Partly cloudy 700 ft
Mostly cloudy 1000 ft
Overcast 2900 ft
2019/08/18 15:15 KTKV 181515Z AUTO 20003KT 4SM -DZ SCT007 BKN010 OVC029 18/17 A2966 RMK AO2 T01780172